createdAt,value
2022-10-02T00:00:20.125Z,12.36
2022-10-02T00:01:20.184Z,12.38
2022-10-02T00:02:20.120Z,12.41
2022-10-02T00:03:20.132Z,12.44
2022-10-02T00:04:20.166Z,12.45
2022-10-02T00:05:20.132Z,12.43
2022-10-02T00:06:20.112Z,12.43
2022-10-02T00:07:20.128Z,12.42
2022-10-02T00:08:24.260Z,12.4
2022-10-02T00:09:20.238Z,12.38
2022-10-02T00:10:20.249Z,12.38
2022-10-02T00:11:20.122Z,12.4
2022-10-02T00:12:20.130Z,12.41
2022-10-02T00:13:20.127Z,12.45
2022-10-02T00:14:20.115Z,12.45
2022-10-02T00:15:20.119Z,12.44
2022-10-02T00:16:20.146Z,12.47
2022-10-02T00:17:20.114Z,12.47
2022-10-02T00:18:20.120Z,12.48
2022-10-02T00:19:20.131Z,12.47
2022-10-02T00:20:20.139Z,12.47
2022-10-02T00:21:20.143Z,12.46
2022-10-02T00:22:20.120Z,12.44
2022-10-02T00:23:20.120Z,12.42
2022-10-02T00:24:20.127Z,12.42
2022-10-02T00:25:20.121Z,12.45
2022-10-02T00:26:20.126Z,12.48
2022-10-02T00:27:20.154Z,12.51
2022-10-02T00:28:20.160Z,12.53
2022-10-02T00:29:20.220Z,12.53
2022-10-02T00:30:20.091Z,12.56
2022-10-02T00:31:20.502Z,12.58
2022-10-02T00:32:20.568Z,12.62
2022-10-02T00:33:20.384Z,12.65
2022-10-02T00:34:20.353Z,12.65
2022-10-02T00:35:20.483Z,12.65
2022-10-02T00:36:20.125Z,12.65
2022-10-02T00:37:20.223Z,12.66
2022-10-02T00:38:20.427Z,12.69
2022-10-02T00:39:20.113Z,12.69
2022-10-02T00:40:20.131Z,12.69
2022-10-02T00:41:20.139Z,12.67
2022-10-02T00:42:20.122Z,12.65
2022-10-02T00:43:20.284Z,12.59
2022-10-02T00:44:20.124Z,12.54
2022-10-02T00:45:20.128Z,12.52
2022-10-02T00:46:20.182Z,12.52
2022-10-02T00:47:20.110Z,12.52
2022-10-02T00:48:20.110Z,12.55
2022-10-02T00:49:20.121Z,12.57
2022-10-02T00:50:20.127Z,12.58
2022-10-02T00:51:20.127Z,12.57
2022-10-02T00:52:20.142Z,12.57
2022-10-02T00:53:20.140Z,12.58
2022-10-02T00:54:20.125Z,12.61
2022-10-02T00:55:20.119Z,12.61
2022-10-02T00:56:20.120Z,12.6
2022-10-02T00:57:20.131Z,12.59
2022-10-02T00:58:20.117Z,12.58
2022-10-02T00:59:20.114Z,12.55
2022-10-02T01:00:20.115Z,12.53
2022-10-02T01:01:20.149Z,12.53
2022-10-02T01:02:20.152Z,12.53
2022-10-02T01:03:20.139Z,12.54
2022-10-02T01:04:20.135Z,12.52
2022-10-02T01:05:20.245Z,12.49
2022-10-02T01:06:20.127Z,12.46
2022-10-02T01:07:20.117Z,12.45
2022-10-02T01:08:20.121Z,12.44
2022-10-02T01:09:20.121Z,12.45
2022-10-02T01:10:20.122Z,12.47
2022-10-02T01:11:20.119Z,12.5
2022-10-02T01:12:20.128Z,12.51
2022-10-02T01:13:20.140Z,12.48
2022-10-02T01:14:20.132Z,12.46
2022-10-02T01:15:20.237Z,12.43
2022-10-02T01:16:20.161Z,12.4
2022-10-02T01:17:20.116Z,12.39
2022-10-02T01:18:20.115Z,12.41
2022-10-02T01:19:20.119Z,12.45
2022-10-02T01:20:20.129Z,12.48
2022-10-02T01:21:20.132Z,12.51
2022-10-02T01:22:20.121Z,12.56
2022-10-02T01:23:20.116Z,12.6
2022-10-02T01:24:20.220Z,12.62
2022-10-02T01:25:20.678Z,12.64
2022-10-02T01:26:20.992Z,12.66
2022-10-02T01:27:21.229Z,12.7
2022-10-02T01:28:20.576Z,12.73
2022-10-02T01:29:19.907Z,12.76
2022-10-02T01:30:20.867Z,12.78
2022-10-02T01:31:21.177Z,12.8
2022-10-02T01:32:20.115Z,12.83
2022-10-02T01:33:20.121Z,12.85
2022-10-02T01:34:20.160Z,12.89
2022-10-02T01:35:20.121Z,12.91
2022-10-02T01:36:20.161Z,12.94
2022-10-02T01:37:20.146Z,12.97
2022-10-02T01:38:20.219Z,13
2022-10-02T01:39:20.144Z,13.03
2022-10-02T01:40:20.128Z,13.04
2022-10-02T01:41:20.122Z,13.04
2022-10-02T01:42:20.116Z,13.06
2022-10-02T01:43:20.121Z,13.07
2022-10-02T01:44:20.156Z,13.08
2022-10-02T01:45:20.131Z,13.06
2022-10-02T01:46:20.124Z,13.06
2022-10-02T01:47:20.131Z,13.06
2022-10-02T01:48:20.147Z,13.08
2022-10-02T01:49:20.274Z,13.1
2022-10-02T01:50:20.244Z,13.12
2022-10-02T01:51:20.114Z,13.13
2022-10-02T01:52:20.197Z,13.14
2022-10-02T01:53:20.387Z,13.15
2022-10-02T01:54:20.258Z,13.15
2022-10-02T01:55:20.169Z,13.14
2022-10-02T01:56:20.228Z,13.13
2022-10-02T01:57:20.542Z,13.12
2022-10-02T01:58:20.117Z,13.1
2022-10-02T01:59:20.372Z,13.11
2022-10-02T02:00:20.182Z,13.12
2022-10-02T02:01:20.588Z,13.12
2022-10-02T02:02:20.191Z,13.12
2022-10-02T02:03:20.242Z,13.12
2022-10-02T02:04:20.102Z,13.13
2022-10-02T02:05:20.364Z,13.15
2022-10-02T02:06:20.084Z,13.16
2022-10-02T02:07:20.104Z,13.17
2022-10-02T02:08:20.221Z,13.18
2022-10-02T02:09:20.493Z,13.18
2022-10-02T02:10:20.195Z,13.17
2022-10-02T02:11:20.424Z,13.17
2022-10-02T02:12:21.413Z,13.17
2022-10-02T02:13:20.625Z,13.19
2022-10-02T02:14:20.352Z,13.2
2022-10-02T02:15:20.102Z,13.21
2022-10-02T02:16:20.412Z,13.24
2022-10-02T02:17:20.228Z,13.25
2022-10-02T02:18:20.511Z,13.28
2022-10-02T02:19:20.187Z,13.32
2022-10-02T02:20:20.483Z,13.33
2022-10-02T02:21:23.340Z,13.33
2022-10-02T02:22:20.403Z,13.34
2022-10-02T02:23:20.257Z,13.35
2022-10-02T02:24:20.147Z,13.37
2022-10-02T02:25:20.142Z,13.37
2022-10-02T02:26:20.105Z,13.36
2022-10-02T02:27:20.123Z,13.35
2022-10-02T02:28:20.239Z,13.37
2022-10-02T02:29:20.120Z,13.38
2022-10-02T02:30:20.211Z,13.4
2022-10-02T02:31:20.436Z,13.42
2022-10-02T02:32:20.265Z,13.44
2022-10-02T02:33:20.169Z,13.44
2022-10-02T02:34:20.382Z,13.43
2022-10-02T02:35:20.436Z,13.44
2022-10-02T02:36:20.135Z,13.43
2022-10-02T02:37:20.122Z,13.42
2022-10-02T02:38:20.119Z,13.4
2022-10-02T02:39:20.133Z,13.4
2022-10-02T02:40:20.142Z,13.38
2022-10-02T02:41:20.112Z,13.37
2022-10-02T02:42:25.985Z,13.37
2022-10-02T02:43:20.132Z,13.37
2022-10-02T02:44:20.144Z,13.36
2022-10-02T02:45:20.148Z,13.35
2022-10-02T02:46:20.118Z,13.34
2022-10-02T02:47:20.124Z,13.35
2022-10-02T02:48:20.124Z,13.34
2022-10-02T02:49:20.118Z,13.34
2022-10-02T02:50:20.158Z,13.32
2022-10-02T02:51:20.127Z,13.33
2022-10-02T02:52:20.123Z,13.31
2022-10-02T02:53:20.119Z,13.28
2022-10-02T02:54:20.137Z,13.26
2022-10-02T02:55:20.201Z,13.26
2022-10-02T02:56:20.124Z,13.23
2022-10-02T02:57:20.118Z,13.18
2022-10-02T02:58:20.118Z,13.14
2022-10-02T02:59:20.125Z,13.13
2022-10-02T03:00:20.132Z,13.11
2022-10-02T03:01:20.177Z,13.11
2022-10-02T03:02:20.154Z,13.11
2022-10-02T03:03:20.125Z,13.12
2022-10-02T03:04:20.124Z,13.13
2022-10-02T03:05:20.175Z,13.16
2022-10-02T03:06:20.337Z,13.18
2022-10-02T03:07:20.113Z,13.19
2022-10-02T03:08:20.119Z,13.19
2022-10-02T03:09:20.110Z,13.21
2022-10-02T03:10:20.164Z,13.23
2022-10-02T03:11:20.130Z,13.24
2022-10-02T03:12:20.118Z,13.22
2022-10-02T03:13:20.123Z,13.2
2022-10-02T03:14:20.131Z,13.2
2022-10-02T03:15:20.144Z,13.19
2022-10-02T03:16:20.147Z,13.19
2022-10-02T03:17:20.135Z,13.2
2022-10-02T03:18:20.129Z,13.23
2022-10-02T03:19:20.169Z,13.25
2022-10-02T03:20:20.142Z,13.25
2022-10-02T03:21:20.109Z,13.24
2022-10-02T03:22:20.124Z,13.25
2022-10-02T03:23:20.121Z,13.26
2022-10-02T03:24:20.123Z,13.26
2022-10-02T03:25:20.141Z,13.24
2022-10-02T03:26:20.132Z,13.23
2022-10-02T03:27:20.159Z,13.21
2022-10-02T03:28:37.573Z,13.21
2022-10-02T03:29:20.124Z,13.19
2022-10-02T03:30:20.116Z,13.19
2022-10-02T03:31:20.152Z,13.19
2022-10-02T03:32:20.123Z,13.2
2022-10-02T03:33:20.106Z,13.2
2022-10-02T03:34:20.114Z,13.21
2022-10-02T03:35:20.120Z,13.21
2022-10-02T03:36:20.124Z,13.22
2022-10-02T03:37:20.137Z,13.22
2022-10-02T03:38:20.115Z,13.22
2022-10-02T03:39:25.857Z,13.2
2022-10-02T03:40:20.104Z,13.19
2022-10-02T03:41:20.082Z,13.2
2022-10-02T03:42:20.115Z,13.21
2022-10-02T03:43:20.129Z,13.23
2022-10-02T03:44:20.210Z,13.25
2022-10-02T03:45:39.291Z,13.27
2022-10-02T03:46:20.473Z,13.29
2022-10-02T03:47:20.440Z,13.32
2022-10-02T03:48:20.193Z,13.31
2022-10-02T03:49:20.521Z,13.32
2022-10-02T03:50:20.620Z,13.33
2022-10-02T03:51:20.418Z,13.34
2022-10-02T03:52:20.118Z,13.34
2022-10-02T03:53:20.117Z,13.36
2022-10-02T03:54:20.121Z,13.34
2022-10-02T03:55:20.113Z,13.34
2022-10-02T03:56:20.117Z,13.35
2022-10-02T03:57:20.127Z,13.35
2022-10-02T03:58:20.120Z,13.34
2022-10-02T03:59:20.142Z,13.34
2022-10-02T04:00:20.243Z,13.33
2022-10-02T04:01:20.162Z,13.31
2022-10-02T04:02:20.127Z,13.31
2022-10-02T04:03:20.158Z,13.31
2022-10-02T04:04:20.126Z,13.29
2022-10-02T04:05:20.124Z,13.27
2022-10-02T04:06:20.117Z,13.28
2022-10-02T04:07:20.126Z,13.26
2022-10-02T04:08:20.117Z,13.25
2022-10-02T04:09:20.131Z,13.25
2022-10-02T04:10:20.119Z,13.24
2022-10-02T04:11:20.135Z,13.22
2022-10-02T04:12:20.224Z,13.2
2022-10-02T04:13:20.125Z,13.19
2022-10-02T04:14:20.106Z,13.19
2022-10-02T04:15:20.129Z,13.19
2022-10-02T04:16:20.202Z,13.19
2022-10-02T04:17:20.131Z,13.19
2022-10-02T04:18:20.111Z,13.2
2022-10-02T04:19:20.122Z,13.23
2022-10-02T04:20:20.127Z,13.24
2022-10-02T04:21:20.123Z,13.25
2022-10-02T04:22:20.190Z,13.26
2022-10-02T04:23:20.138Z,13.26
2022-10-02T04:24:20.119Z,13.25
2022-10-02T04:25:20.125Z,13.26
2022-10-02T04:26:20.124Z,13.26
2022-10-02T04:27:20.107Z,13.28
2022-10-02T04:28:20.172Z,13.28
2022-10-02T04:29:20.118Z,13.28
2022-10-02T04:30:20.114Z,13.32
2022-10-02T04:31:20.148Z,13.36
2022-10-02T04:32:20.130Z,13.37
2022-10-02T04:33:20.222Z,13.37
2022-10-02T04:34:20.135Z,13.38
2022-10-02T04:35:20.242Z,13.36
2022-10-02T04:36:20.130Z,13.34
2022-10-02T04:37:20.109Z,13.34
2022-10-02T04:38:20.100Z,13.32
2022-10-02T04:39:20.248Z,13.3
2022-10-02T04:40:20.503Z,13.31
2022-10-02T04:41:20.799Z,13.31
2022-10-02T04:42:20.992Z,13.31
2022-10-02T04:43:20.508Z,13.31
2022-10-02T04:44:20.540Z,13.32
2022-10-02T04:45:20.856Z,13.3
2022-10-02T04:46:20.635Z,13.3
2022-10-02T04:47:20.120Z,13.3
2022-10-02T04:48:20.161Z,13.3
2022-10-02T04:49:20.156Z,13.29
2022-10-02T04:50:20.161Z,13.3
2022-10-02T04:51:20.113Z,13.29
2022-10-02T04:52:20.129Z,13.28
2022-10-02T04:53:20.136Z,13.28
2022-10-02T04:54:20.128Z,13.28
2022-10-02T04:55:20.135Z,13.28
2022-10-02T04:56:20.121Z,13.28
2022-10-02T04:57:20.125Z,13.28
2022-10-02T04:58:20.183Z,13.27
2022-10-02T04:59:20.133Z,13.28
2022-10-02T05:00:20.264Z,13.27
2022-10-02T05:01:20.133Z,13.27
2022-10-02T05:02:20.259Z,13.25
2022-10-02T05:03:20.507Z,13.24
2022-10-02T05:04:20.281Z,13.23
2022-10-02T05:05:20.164Z,13.22
2022-10-02T05:06:20.345Z,13.22
2022-10-02T05:07:20.443Z,13.22
2022-10-02T05:08:20.426Z,13.21
2022-10-02T05:09:23.058Z,13.21
2022-10-02T05:10:20.127Z,13.21
2022-10-02T05:11:20.127Z,13.21
2022-10-02T05:12:20.125Z,13.23
2022-10-02T05:13:20.118Z,13.24
2022-10-02T05:14:20.140Z,13.25
2022-10-02T05:15:20.145Z,13.25
2022-10-02T05:16:20.223Z,13.25
2022-10-02T05:17:20.119Z,13.26
2022-10-02T05:18:20.412Z,13.26
2022-10-02T05:19:20.453Z,13.28
2022-10-02T05:20:20.462Z,13.28
2022-10-02T05:21:20.107Z,13.27
2022-10-02T05:22:20.327Z,13.27
2022-10-02T05:23:20.303Z,13.27
2022-10-02T05:24:20.618Z,13.26
2022-10-02T05:25:20.239Z,13.25
2022-10-02T05:26:20.506Z,13.23
2022-10-02T05:27:20.258Z,13.22
2022-10-02T05:28:20.543Z,13.21
2022-10-02T05:29:20.704Z,13.2
2022-10-02T05:30:20.249Z,13.2
2022-10-02T05:31:20.621Z,13.19
2022-10-02T05:32:20.110Z,13.18
2022-10-02T05:33:20.116Z,13.2
2022-10-02T05:34:20.193Z,13.21
2022-10-02T05:35:20.330Z,13.21
2022-10-02T05:36:20.131Z,13.22
2022-10-02T05:37:20.117Z,13.22
2022-10-02T05:38:20.380Z,13.23
2022-10-02T05:39:20.125Z,13.24
2022-10-02T05:40:20.170Z,13.24
2022-10-02T05:41:20.326Z,13.25
2022-10-02T05:42:20.098Z,13.26
2022-10-02T05:43:20.128Z,13.26
2022-10-02T05:44:20.093Z,13.26
2022-10-02T05:45:20.170Z,13.26
2022-10-02T05:46:20.114Z,13.26
2022-10-02T05:47:20.374Z,13.28
2022-10-02T05:48:20.122Z,13.29
2022-10-02T05:49:20.130Z,13.3
2022-10-02T05:50:20.222Z,13.31
2022-10-02T05:51:20.493Z,13.33
2022-10-02T05:52:20.115Z,13.35
2022-10-02T05:53:20.134Z,13.35
2022-10-02T05:54:20.130Z,13.36
2022-10-02T05:55:20.156Z,13.36
2022-10-02T05:56:20.131Z,13.38
2022-10-02T05:57:20.121Z,13.39
2022-10-02T05:58:20.137Z,13.4
2022-10-02T05:59:20.132Z,13.4
2022-10-02T06:00:20.172Z,13.41
2022-10-02T06:01:20.167Z,13.41
2022-10-02T06:02:20.197Z,13.4
2022-10-02T06:03:20.138Z,13.41
2022-10-02T06:04:20.120Z,13.42
2022-10-02T06:05:20.148Z,13.43
2022-10-02T06:06:20.133Z,13.45
2022-10-02T06:07:20.118Z,13.46
2022-10-02T06:08:20.128Z,13.48
2022-10-02T06:09:21.151Z,13.49
2022-10-02T06:10:20.129Z,13.51
2022-10-02T06:11:20.134Z,13.52
2022-10-02T06:12:20.128Z,13.52
2022-10-02T06:13:20.128Z,13.52
2022-10-02T06:14:20.165Z,13.51
2022-10-02T06:15:20.128Z,13.53
2022-10-02T06:16:20.125Z,13.53
2022-10-02T06:17:20.114Z,13.53
2022-10-02T06:18:20.114Z,13.53
2022-10-02T06:19:20.153Z,13.53
2022-10-02T06:20:20.131Z,13.53
2022-10-02T06:21:20.114Z,13.54
2022-10-02T06:22:20.121Z,13.55
2022-10-02T06:23:20.125Z,13.55
2022-10-02T06:24:20.167Z,13.58
2022-10-02T06:25:20.146Z,13.6
2022-10-02T06:26:20.116Z,13.64
2022-10-02T06:27:20.127Z,13.66
2022-10-02T06:28:20.166Z,13.69
2022-10-02T06:29:26.995Z,13.73
2022-10-02T06:30:20.138Z,13.74
2022-10-02T06:31:20.159Z,13.78
2022-10-02T06:32:20.109Z,13.8
2022-10-02T06:33:20.120Z,13.83
2022-10-02T06:34:20.116Z,13.84
2022-10-02T06:35:20.113Z,13.87
2022-10-02T06:36:20.149Z,13.88
2022-10-02T06:37:20.119Z,13.86
2022-10-02T06:38:20.124Z,13.87
2022-10-02T06:39:20.124Z,13.87
2022-10-02T06:40:20.117Z,13.84
2022-10-02T06:41:20.119Z,13.82
2022-10-02T06:42:20.129Z,13.8
2022-10-02T06:43:20.125Z,13.8
2022-10-02T06:44:20.131Z,13.79
2022-10-02T06:45:20.127Z,13.77
2022-10-02T06:46:20.126Z,13.78
2022-10-02T06:47:20.131Z,13.77
2022-10-02T06:48:20.106Z,13.79
2022-10-02T06:49:20.131Z,13.79
2022-10-02T06:50:20.127Z,13.78
2022-10-02T06:51:20.116Z,13.77
2022-10-02T06:52:20.125Z,13.76
2022-10-02T06:53:20.102Z,13.76
2022-10-02T06:54:20.125Z,13.78
2022-10-02T06:55:20.119Z,13.81
2022-10-02T06:56:20.125Z,13.82
2022-10-02T06:57:20.337Z,13.83
2022-10-02T06:58:20.119Z,13.83
2022-10-02T06:59:20.300Z,13.83
2022-10-02T07:00:20.479Z,13.84
2022-10-02T07:01:20.304Z,13.83
2022-10-02T07:02:20.222Z,13.83
2022-10-02T07:03:20.408Z,13.84
2022-10-02T07:04:20.659Z,13.83
2022-10-02T07:05:20.917Z,13.85
2022-10-02T07:06:20.133Z,13.85
2022-10-02T07:07:20.128Z,13.87
2022-10-02T07:08:20.124Z,13.9
2022-10-02T07:09:20.243Z,13.94
2022-10-02T07:10:20.119Z,13.98
2022-10-02T07:11:20.119Z,14.04
2022-10-02T07:12:20.126Z,14.07
2022-10-02T07:13:20.128Z,14.12
2022-10-02T07:14:20.125Z,14.14
2022-10-02T07:15:20.121Z,14.16
2022-10-02T07:16:20.174Z,14.15
2022-10-02T07:17:23.231Z,14.14
2022-10-02T07:18:20.150Z,14.14
2022-10-02T07:19:20.136Z,14.07
2022-10-02T07:20:20.318Z,14.08
2022-10-02T07:21:20.112Z,14.07
2022-10-02T07:22:43.227Z,14.09
2022-10-02T07:23:20.122Z,14.09
2022-10-02T07:24:20.114Z,14.09
2022-10-02T07:25:20.111Z,14.12
2022-10-02T07:26:20.129Z,14.13
2022-10-02T07:27:20.117Z,14.15
2022-10-02T07:28:20.209Z,14.15
2022-10-02T07:29:20.125Z,14.17
2022-10-02T07:30:20.129Z,14.15
2022-10-02T07:31:20.150Z,14.19
2022-10-02T07:32:20.121Z,14.2
2022-10-02T07:33:20.128Z,14.25
2022-10-02T07:34:20.128Z,14.26
2022-10-02T07:35:20.127Z,14.27
2022-10-02T07:36:20.121Z,14.28
2022-10-02T07:37:20.131Z,14.27
2022-10-02T07:38:20.137Z,14.27
2022-10-02T07:39:20.138Z,14.27
2022-10-02T07:40:20.131Z,14.24
2022-10-02T07:41:20.138Z,14.21
2022-10-02T07:42:20.139Z,14.2
2022-10-02T07:43:20.116Z,14.16
2022-10-02T07:44:20.123Z,14.15
2022-10-02T07:45:20.118Z,14.12
2022-10-02T07:46:20.120Z,14.1
2022-10-02T07:47:20.112Z,14.08
2022-10-02T07:48:20.126Z,14.07
2022-10-02T07:49:20.116Z,14.05
2022-10-02T07:50:20.166Z,14.04
2022-10-02T07:51:22.403Z,14.03
2022-10-02T07:52:20.143Z,14.05
2022-10-02T07:53:20.175Z,14.06
2022-10-02T07:54:20.121Z,14.07
2022-10-02T07:55:20.206Z,14.09
2022-10-02T07:56:20.348Z,14.09
2022-10-02T07:57:20.421Z,14.1
2022-10-02T07:58:20.654Z,14.14
2022-10-02T07:59:19.919Z,14.15
2022-10-02T08:00:20.326Z,14.2
2022-10-02T08:01:20.579Z,14.25
2022-10-02T08:02:20.240Z,14.28
2022-10-02T08:03:20.188Z,14.31
2022-10-02T08:04:20.311Z,14.34
2022-10-02T08:05:20.116Z,14.37
2022-10-02T08:06:20.259Z,14.4
2022-10-02T08:07:20.088Z,14.45
2022-10-02T08:08:20.244Z,14.5
2022-10-02T08:09:20.116Z,14.53
2022-10-02T08:10:20.350Z,14.55
2022-10-02T08:11:20.106Z,14.57
2022-10-02T08:12:20.412Z,14.55
2022-10-02T08:13:20.403Z,14.54
2022-10-02T08:14:20.501Z,14.55
2022-10-02T08:15:20.777Z,14.52
2022-10-02T08:16:21.185Z,14.51
2022-10-02T08:17:20.148Z,14.53
2022-10-02T08:18:34.000Z,14.54
2022-10-02T08:19:20.127Z,14.55
2022-10-02T08:20:20.113Z,14.58
2022-10-02T08:21:20.123Z,14.58
2022-10-02T08:22:20.155Z,14.59
2022-10-02T08:23:20.107Z,14.63
2022-10-02T08:24:20.110Z,14.65
2022-10-02T08:25:20.121Z,14.68
2022-10-02T08:26:20.160Z,14.69
2022-10-02T08:27:20.155Z,14.71
2022-10-02T08:28:20.124Z,14.75
2022-10-02T08:29:20.093Z,14.8
2022-10-02T08:30:20.111Z,14.85
2022-10-02T08:31:20.200Z,14.89
2022-10-02T08:32:20.098Z,14.93
2022-10-02T08:33:20.222Z,14.96
2022-10-02T08:34:20.448Z,14.98
2022-10-02T08:35:20.274Z,15.04
2022-10-02T08:36:20.206Z,15.13
2022-10-02T08:37:20.479Z,15.21
2022-10-02T08:38:20.510Z,15.3
2022-10-02T08:39:20.830Z,15.4
2022-10-02T08:40:20.346Z,15.48
2022-10-02T08:41:20.100Z,15.53
2022-10-02T08:42:20.255Z,15.57
2022-10-02T08:43:20.492Z,15.6
2022-10-02T08:44:20.782Z,15.64
2022-10-02T08:45:20.656Z,15.67
2022-10-02T08:46:20.454Z,15.68
2022-10-02T08:47:20.142Z,15.67
2022-10-02T08:48:20.104Z,15.67
2022-10-02T08:49:20.365Z,15.69
2022-10-02T08:50:20.550Z,15.72
2022-10-02T08:51:20.151Z,15.74
2022-10-02T08:52:20.217Z,15.65
2022-10-02T08:53:20.569Z,15.62
2022-10-02T08:54:20.114Z,15.55
2022-10-02T08:55:20.121Z,15.49
2022-10-02T08:56:21.401Z,15.44
2022-10-02T08:57:20.141Z,15.35
2022-10-02T08:58:20.136Z,15.35
2022-10-02T08:59:20.119Z,15.29
2022-10-02T09:00:20.202Z,15.28
2022-10-02T09:01:20.227Z,15.29
2022-10-02T09:02:20.271Z,15.26
2022-10-02T09:03:20.118Z,15.27
2022-10-02T09:04:20.337Z,15.26
2022-10-02T09:05:20.408Z,15.3
2022-10-02T09:06:20.122Z,15.33
2022-10-02T09:07:20.919Z,15.33
2022-10-02T09:08:20.125Z,15.28
2022-10-02T09:09:20.124Z,15.29
2022-10-02T09:10:20.107Z,15.3
2022-10-02T09:11:20.123Z,15.3
2022-10-02T09:12:20.140Z,15.33
2022-10-02T09:13:20.141Z,15.32
2022-10-02T09:14:20.126Z,15.34
2022-10-02T09:15:20.130Z,15.37
2022-10-02T09:16:20.227Z,15.4
2022-10-02T09:17:20.107Z,15.42
2022-10-02T09:18:20.119Z,15.43
2022-10-02T09:19:20.131Z,15.42
2022-10-02T09:20:20.120Z,15.41
2022-10-02T09:21:20.116Z,15.45
2022-10-02T09:22:20.130Z,15.48
2022-10-02T09:23:20.113Z,15.54
2022-10-02T09:24:20.143Z,15.64
2022-10-02T09:25:20.140Z,15.79
2022-10-02T09:26:20.122Z,15.9
2022-10-02T09:27:20.193Z,16
2022-10-02T09:28:20.146Z,16.01
2022-10-02T09:29:20.128Z,16.06
2022-10-02T09:30:20.119Z,16.13
2022-10-02T09:31:20.143Z,16.19
2022-10-02T09:32:20.125Z,16.24
2022-10-02T09:33:20.125Z,16.35
2022-10-02T09:34:20.123Z,16.43
2022-10-02T09:35:20.126Z,16.47
2022-10-02T09:36:20.133Z,16.51
2022-10-02T09:37:20.122Z,16.55
2022-10-02T09:38:20.154Z,16.55
2022-10-02T09:39:20.113Z,16.53
2022-10-02T09:40:20.118Z,16.5
2022-10-02T09:41:20.117Z,16.44
2022-10-02T09:42:20.128Z,16.44
2022-10-02T09:43:20.123Z,16.42
2022-10-02T09:44:20.119Z,16.38
2022-10-02T09:45:20.141Z,16.36
2022-10-02T09:46:20.159Z,16.34
2022-10-02T09:47:20.137Z,16.3
2022-10-02T09:48:20.135Z,16.33
2022-10-02T09:49:20.134Z,16.33
2022-10-02T09:50:20.135Z,16.37
2022-10-02T09:51:20.114Z,16.5
2022-10-02T09:52:20.128Z,16.57
2022-10-02T09:53:20.108Z,16.64
2022-10-02T09:54:20.132Z,16.76
2022-10-02T09:55:20.127Z,16.84
2022-10-02T09:56:20.129Z,16.98
2022-10-02T09:57:20.124Z,17.05
2022-10-02T09:58:20.122Z,17.08
2022-10-02T09:59:20.127Z,17.18
2022-10-02T10:00:20.133Z,17.28
2022-10-02T10:01:20.153Z,17.42
2022-10-02T10:02:25.684Z,17.37
2022-10-02T10:03:20.113Z,17.41
2022-10-02T10:04:20.119Z,17.37
2022-10-02T10:05:20.127Z,17.26
2022-10-02T10:06:20.115Z,17.18
2022-10-02T10:07:20.117Z,17.15
2022-10-02T10:08:20.111Z,17.14
2022-10-02T10:09:20.160Z,17.16
2022-10-02T10:10:20.099Z,17.2
2022-10-02T10:11:20.091Z,17.21
2022-10-02T10:12:20.118Z,17.08
2022-10-02T10:13:20.114Z,16.99
2022-10-02T10:14:20.213Z,16.85
2022-10-02T10:15:20.439Z,16.77
2022-10-02T10:16:20.272Z,16.71
2022-10-02T10:17:20.456Z,16.6
2022-10-02T10:18:20.307Z,16.5
2022-10-02T10:19:20.572Z,16.47
2022-10-02T10:20:20.214Z,16.43
2022-10-02T10:21:20.439Z,16.43
2022-10-02T10:22:20.226Z,16.49
2022-10-02T10:23:20.142Z,16.54
2022-10-02T10:24:20.117Z,16.61
2022-10-02T10:25:20.107Z,16.7
2022-10-02T10:26:20.127Z,16.61
2022-10-02T10:27:20.129Z,16.64
2022-10-02T10:28:20.166Z,16.71
2022-10-02T10:29:20.130Z,16.79
2022-10-02T10:30:20.135Z,16.93
2022-10-02T10:31:20.168Z,17.07
2022-10-02T10:32:20.135Z,17.11
2022-10-02T10:33:20.164Z,17.02
2022-10-02T10:34:20.112Z,16.99
2022-10-02T10:35:20.121Z,17
2022-10-02T10:36:20.113Z,17.08
2022-10-02T10:37:20.118Z,17.14
2022-10-02T10:38:20.141Z,17.24
2022-10-02T10:39:20.119Z,17.32
2022-10-02T10:40:20.199Z,17.39
2022-10-02T10:41:20.130Z,17.5
2022-10-02T10:42:20.126Z,17.41
2022-10-02T10:43:20.120Z,17.3
2022-10-02T10:44:20.126Z,17.19
2022-10-02T10:45:20.129Z,17.04
2022-10-02T10:46:20.145Z,17
2022-10-02T10:47:20.118Z,16.93
2022-10-02T10:48:20.106Z,16.84
2022-10-02T10:49:20.107Z,16.77
2022-10-02T10:50:20.118Z,16.8
2022-10-02T10:51:20.100Z,16.81
2022-10-02T10:52:20.124Z,16.96
2022-10-02T10:53:20.125Z,17.12
2022-10-02T10:54:20.121Z,17.33
2022-10-02T10:55:20.202Z,17.55
2022-10-02T10:56:20.140Z,17.71
2022-10-02T10:57:20.120Z,17.78
2022-10-02T10:58:20.637Z,17.76
2022-10-02T10:59:25.096Z,17.74
2022-10-02T11:00:20.653Z,17.74
2022-10-02T11:01:20.707Z,17.69
2022-10-02T11:02:20.738Z,17.63
2022-10-02T11:03:20.646Z,17.66
2022-10-02T11:04:20.134Z,17.64
2022-10-02T11:05:20.130Z,17.61
2022-10-02T11:06:20.132Z,17.69
2022-10-02T11:07:20.254Z,17.89
2022-10-02T11:08:20.100Z,17.99
2022-10-02T11:09:20.100Z,18.03
2022-10-02T11:10:20.190Z,17.99
2022-10-02T11:11:20.090Z,17.82
2022-10-02T11:12:20.246Z,17.76
2022-10-02T11:13:20.085Z,17.65
2022-10-02T11:14:20.246Z,17.56
2022-10-02T11:15:20.654Z,17.49
2022-10-02T11:16:20.929Z,17.4
2022-10-02T11:17:20.220Z,17.23
2022-10-02T11:18:20.319Z,17.13
2022-10-02T11:19:21.979Z,16.99
2022-10-02T11:20:20.124Z,16.93
2022-10-02T11:21:20.334Z,16.87
2022-10-02T11:22:20.199Z,16.95
2022-10-02T11:23:20.460Z,16.99
2022-10-02T11:24:20.126Z,17.04
2022-10-02T11:25:20.119Z,17.14
2022-10-02T11:26:20.131Z,17.33
2022-10-02T11:27:20.120Z,17.52
2022-10-02T11:28:20.149Z,17.63
2022-10-02T11:29:20.340Z,17.93
2022-10-02T11:30:20.131Z,18.19
2022-10-02T11:31:20.157Z,18.53
2022-10-02T11:32:20.123Z,18.9
2022-10-02T11:33:20.142Z,19.18
2022-10-02T11:34:20.121Z,19.3
2022-10-02T11:35:20.101Z,19.25
2022-10-02T11:36:20.133Z,19.03
2022-10-02T11:37:20.181Z,18.78
2022-10-02T11:38:20.146Z,18.6
2022-10-02T11:39:20.432Z,18.45
2022-10-02T11:40:20.157Z,18.27
2022-10-02T11:41:20.242Z,17.99
2022-10-02T11:42:20.091Z,17.85
2022-10-02T11:43:20.226Z,17.63
2022-10-02T11:44:20.089Z,17.61
2022-10-02T11:45:20.349Z,17.62
2022-10-02T11:46:20.212Z,17.59
2022-10-02T11:47:20.126Z,17.5
2022-10-02T11:48:20.439Z,17.43
2022-10-02T11:49:20.559Z,17.44
2022-10-02T11:50:20.990Z,17.39
2022-10-02T11:51:20.581Z,17.5
2022-10-02T11:52:20.888Z,17.59
2022-10-02T11:53:20.339Z,17.74
2022-10-02T11:54:20.583Z,17.87
2022-10-02T11:55:20.378Z,17.96
2022-10-02T11:56:20.114Z,18.09
2022-10-02T11:57:20.283Z,18.25
2022-10-02T11:58:20.491Z,18.48
2022-10-02T11:59:20.578Z,18.64
2022-10-02T12:00:20.194Z,18.9
2022-10-02T12:01:20.390Z,19.13
2022-10-02T12:02:21.095Z,19.44
2022-10-02T12:03:20.184Z,19.54
2022-10-02T12:04:20.302Z,19.78
2022-10-02T12:05:20.137Z,20.01
2022-10-02T12:06:20.125Z,20.09
2022-10-02T12:07:20.157Z,20.35
2022-10-02T12:08:20.427Z,20.56
2022-10-02T12:09:20.125Z,20.71
2022-10-02T12:10:20.122Z,20.82
2022-10-02T12:11:20.133Z,20.72
2022-10-02T12:12:21.771Z,20.59
2022-10-02T12:13:20.119Z,20.21
2022-10-02T12:14:20.196Z,19.75
2022-10-02T12:15:20.124Z,19.19
2022-10-02T12:16:20.154Z,18.72
2022-10-02T12:17:20.132Z,18.43
2022-10-02T12:18:23.120Z,18.2
2022-10-02T12:19:20.150Z,18.08
2022-10-02T12:20:20.104Z,17.96
2022-10-02T12:21:20.129Z,17.85
2022-10-02T12:22:20.211Z,17.76
2022-10-02T12:23:20.236Z,17.7
2022-10-02T12:24:20.135Z,17.6
2022-10-02T12:25:20.126Z,17.52
2022-10-02T12:26:20.131Z,17.52
2022-10-02T12:27:20.126Z,17.67
2022-10-02T12:28:20.169Z,17.92
2022-10-02T12:29:20.132Z,18.14
2022-10-02T12:30:20.154Z,18.41
2022-10-02T12:31:20.149Z,18.6
2022-10-02T12:32:20.130Z,18.82
2022-10-02T12:33:20.132Z,18.87
2022-10-02T12:34:20.150Z,18.96
2022-10-02T12:35:20.271Z,18.93
2022-10-02T12:36:20.113Z,18.85
2022-10-02T12:37:20.110Z,18.69
2022-10-02T12:38:20.125Z,18.45
2022-10-02T12:39:23.125Z,18.35
2022-10-02T12:40:20.145Z,18.2
2022-10-02T12:41:20.130Z,18.11
2022-10-02T12:42:20.132Z,18.14
2022-10-02T12:43:20.124Z,18.22
2022-10-02T12:44:20.145Z,18.25
2022-10-02T12:45:20.356Z,18.21
2022-10-02T12:46:20.151Z,18.26
2022-10-02T12:47:20.121Z,18.36
2022-10-02T12:48:20.114Z,18.51
2022-10-02T12:49:20.176Z,18.72
2022-10-02T12:50:20.127Z,19
2022-10-02T12:51:20.149Z,19.18
2022-10-02T12:52:20.319Z,19.31
2022-10-02T12:53:20.130Z,19.38
2022-10-02T12:54:20.138Z,19.33
2022-10-02T12:55:20.138Z,19.22